sensor_id;sensor_type;location;lat;lon;timestamp;P1;durP1;ratioP1;P2;durP2;ratioP2
1975;SDS011;988;48.016;7.800;2023-06-14T00:00:19;19.57;;;18.50;;
1975;SDS011;988;48.016;7.800;2023-06-14T00:02:45;19.30;;;18.10;;
1975;SDS011;988;48.016;7.800;2023-06-14T00:05:11;18.70;;;17.57;;
1975;SDS011;988;48.016;7.800;2023-06-14T00:07:38;20.00;;;18.90;;
1975;SDS011;988;48.016;7.800;2023-06-14T00:10:08;19.27;;;18.17;;
1975;SDS011;988;48.016;7.800;2023-06-14T00:12:37;19.10;;;18.00;;
1975;SDS011;988;48.016;7.800;2023-06-14T00:15:04;19.27;;;18.17;;
1975;SDS011;988;48.016;7.800;2023-06-14T00:17:30;18.67;;;17.52;;
1975;SDS011;988;48.016;7.800;2023-06-14T00:19:56;19.83;;;18.63;;
1975;SDS011;988;48.016;7.800;2023-06-14T00:22:22;20.58;;;19.35;;
1975;SDS011;988;48.016;7.800;2023-06-14T00:24:51;19.40;;;18.10;;
1975;SDS011;988;48.016;7.800;2023-06-14T00:27:17;17.92;;;16.92;;
1975;SDS011;988;48.016;7.800;2023-06-14T00:29:43;19.40;;;18.10;;
1975;SDS011;988;48.016;7.800;2023-06-14T00:32:08;18.90;;;17.77;;
1975;SDS011;988;48.016;7.800;2023-06-14T00:34:34;17.40;;;16.37;;
1975;SDS011;988;48.016;7.800;2023-06-14T00:36:59;19.83;;;18.73;;
1975;SDS011;988;48.016;7.800;2023-06-14T00:39:25;17.10;;;16.20;;
1975;SDS011;988;48.016;7.800;2023-06-14T00:41:51;17.90;;;16.90;;
1975;SDS011;988;48.016;7.800;2023-06-14T00:44:16;16.73;;;15.83;;
1975;SDS011;988;48.016;7.800;2023-06-14T00:46:42;17.53;;;16.33;;
1975;SDS011;988;48.016;7.800;2023-06-14T00:49:10;19.10;;;18.00;;
1975;SDS011;988;48.016;7.800;2023-06-14T00:51:37;16.45;;;15.45;;
1975;SDS011;988;48.016;7.800;2023-06-14T00:54:02;16.37;;;15.47;;
1975;SDS011;988;48.016;7.800;2023-06-14T00:56:28;17.60;;;16.60;;
1975;SDS011;988;48.016;7.800;2023-06-14T00:58:55;17.42;;;16.42;;
1975;SDS011;988;48.016;7.800;2023-06-14T01:01:22;16.83;;;15.93;;
1975;SDS011;988;48.016;7.800;2023-06-14T01:03:49;17.50;;;16.40;;
1975;SDS011;988;48.016;7.800;2023-06-14T01:06:21;16.88;;;15.90;;
1975;SDS011;988;48.016;7.800;2023-06-14T01:11:54;18.25;;;17.17;;
1975;SDS011;988;48.016;7.800;2023-06-14T01:14:32;17.38;;;16.30;;
1975;SDS011;988;48.016;7.800;2023-06-14T01:16:59;17.58;;;16.60;;
1975;SDS011;988;48.016;7.800;2023-06-14T01:19:25;17.50;;;16.50;;
1975;SDS011;988;48.016;7.800;2023-06-14T01:21:53;16.08;;;15.18;;
1975;SDS011;988;48.016;7.800;2023-06-14T01:24:20;18.15;;;16.75;;
1975;SDS011;988;48.016;7.800;2023-06-14T01:26:51;18.58;;;17.38;;
1975;SDS011;988;48.016;7.800;2023-06-14T01:29:22;17.38;;;16.08;;
1975;SDS011;988;48.016;7.800;2023-06-14T01:31:49;18.77;;;17.58;;
1975;SDS011;988;48.016;7.800;2023-06-14T01:34:15;18.57;;;17.37;;
1975;SDS011;988;48.016;7.800;2023-06-14T01:36:42;17.40;;;16.40;;
1975;SDS011;988;48.016;7.800;2023-06-14T01:39:10;18.45;;;17.33;;
1975;SDS011;988;48.016;7.800;2023-06-14T01:41:38;16.27;;;15.38;;
1975;SDS011;988;48.016;7.800;2023-06-14T01:44:05;16.48;;;15.57;;
1975;SDS011;988;48.016;7.800;2023-06-14T01:46:31;17.92;;;16.70;;
1975;SDS011;988;48.016;7.800;2023-06-14T01:48:58;18.27;;;16.92;;
1975;SDS011;988;48.016;7.800;2023-06-14T01:51:24;18.00;;;16.90;;
1975;SDS011;988;48.016;7.800;2023-06-14T01:53:49;17.53;;;16.53;;
1975;SDS011;988;48.016;7.800;2023-06-14T01:56:15;18.27;;;17.17;;
1975;SDS011;988;48.016;7.800;2023-06-14T01:58:41;16.67;;;15.60;;
1975;SDS011;988;48.016;7.800;2023-06-14T02:01:06;18.40;;;17.33;;
1975;SDS011;988;48.016;7.800;2023-06-14T02:03:33;16.50;;;15.52;;
1975;SDS011;988;48.016;7.800;2023-06-14T02:05:59;17.13;;;15.85;;
1975;SDS011;988;48.016;7.800;2023-06-14T02:08:24;15.93;;;15.03;;
1975;SDS011;988;48.016;7.800;2023-06-14T02:10:51;16.83;;;15.83;;
1975;SDS011;988;48.016;7.800;2023-06-14T02:13:16;17.50;;;16.50;;
1975;SDS011;988;48.016;7.800;2023-06-14T02:15:42;17.60;;;16.60;;
1975;SDS011;988;48.016;7.800;2023-06-14T02:18:08;17.83;;;16.10;;
1975;SDS011;988;48.016;7.800;2023-06-14T02:20:35;16.88;;;15.88;;
1975;SDS011;988;48.016;7.800;2023-06-14T02:23:00;17.40;;;16.50;;
1975;SDS011;988;48.016;7.800;2023-06-14T02:25:26;16.27;;;15.20;;
1975;SDS011;988;48.016;7.800;2023-06-14T02:27:55;16.40;;;15.50;;
1975;SDS011;988;48.016;7.800;2023-06-14T02:30:21;16.35;;;15.35;;
1975;SDS011;988;48.016;7.800;2023-06-14T02:32:47;17.13;;;15.93;;
1975;SDS011;988;48.016;7.800;2023-06-14T02:35:13;16.38;;;15.38;;
1975;SDS011;988;48.016;7.800;2023-06-14T02:37:39;16.60;;;15.57;;
1975;SDS011;988;48.016;7.800;2023-06-14T02:40:05;17.40;;;16.10;;
1975;SDS011;988;48.016;7.800;2023-06-14T02:42:31;16.58;;;15.57;;
1975;SDS011;988;48.016;7.800;2023-06-14T02:44:56;17.20;;;16.10;;
1975;SDS011;988;48.016;7.800;2023-06-14T02:47:22;16.37;;;15.23;;
1975;SDS011;988;48.016;7.800;2023-06-14T02:49:47;16.87;;;15.67;;
1975;SDS011;988;48.016;7.800;2023-06-14T02:52:13;16.07;;;15.17;;
1975;SDS011;988;48.016;7.800;2023-06-14T02:54:39;16.50;;;15.50;;
1975;SDS011;988;48.016;7.800;2023-06-14T02:57:05;17.83;;;16.53;;
1975;SDS011;988;48.016;7.800;2023-06-14T02:59:32;17.63;;;16.33;;
1975;SDS011;988;48.016;7.800;2023-06-14T03:01:58;16.40;;;15.48;;
1975;SDS011;988;48.016;7.800;2023-06-14T03:04:24;17.37;;;16.47;;
1975;SDS011;988;48.016;7.800;2023-06-14T03:06:51;16.08;;;15.18;;
1975;SDS011;988;48.016;7.800;2023-06-14T03:09:18;19.80;;;18.00;;
1975;SDS011;988;48.016;7.800;2023-06-14T03:11:44;18.20;;;17.10;;
1975;SDS011;988;48.016;7.800;2023-06-14T03:14:10;17.63;;;16.27;;
1975;SDS011;988;48.016;7.800;2023-06-14T03:16:36;17.20;;;16.20;;
1975;SDS011;988;48.016;7.800;2023-06-14T03:19:02;16.98;;;15.88;;
1975;SDS011;988;48.016;7.800;2023-06-14T03:21:28;17.80;;;16.57;;
1975;SDS011;988;48.016;7.800;2023-06-14T03:23:53;16.83;;;15.73;;
1975;SDS011;988;48.016;7.800;2023-06-14T03:26:19;18.53;;;17.37;;
1975;SDS011;988;48.016;7.800;2023-06-14T03:28:45;17.80;;;16.70;;
1975;SDS011;988;48.016;7.800;2023-06-14T03:31:12;16.88;;;15.70;;
1975;SDS011;988;48.016;7.800;2023-06-14T03:33:38;16.98;;;15.80;;
1975;SDS011;988;48.016;7.800;2023-06-14T03:36:04;17.60;;;16.40;;
1975;SDS011;988;48.016;7.800;2023-06-14T03:38:30;16.27;;;15.35;;
1975;SDS011;988;48.016;7.800;2023-06-14T03:40:55;17.03;;;15.63;;
1975;SDS011;988;48.016;7.800;2023-06-14T03:43:21;16.50;;;15.37;;
1975;SDS011;988;48.016;7.800;2023-06-14T03:45:47;17.27;;;15.83;;
1975;SDS011;988;48.016;7.800;2023-06-14T03:48:12;18.53;;;17.40;;
1975;SDS011;988;48.016;7.800;2023-06-14T03:50:38;17.07;;;15.90;;
1975;SDS011;988;48.016;7.800;2023-06-14T03:53:04;17.13;;;16.03;;
1975;SDS011;988;48.016;7.800;2023-06-14T03:55:30;18.27;;;16.48;;
1975;SDS011;988;48.016;7.800;2023-06-14T03:57:58;17.98;;;16.77;;
1975;SDS011;988;48.016;7.800;2023-06-14T04:00:24;15.90;;;14.90;;
1975;SDS011;988;48.016;7.800;2023-06-14T04:02:50;15.43;;;14.40;;
1975;SDS011;988;48.016;7.800;2023-06-14T04:05:15;15.60;;;14.27;;
1975;SDS011;988;48.016;7.800;2023-06-14T04:07:44;16.42;;;15.00;;
1975;SDS011;988;48.016;7.800;2023-06-14T04:10:13;16.10;;;14.90;;
1975;SDS011;988;48.016;7.800;2023-06-14T04:12:40;15.48;;;14.43;;
1975;SDS011;988;48.016;7.800;2023-06-14T04:15:06;15.43;;;14.43;;
1975;SDS011;988;48.016;7.800;2023-06-14T04:17:33;16.55;;;15.52;;
1975;SDS011;988;48.016;7.800;2023-06-14T04:19:59;17.30;;;15.90;;
1975;SDS011;988;48.016;7.800;2023-06-14T04:22:25;18.48;;;16.88;;
1975;SDS011;988;48.016;7.800;2023-06-14T04:24:54;17.00;;;15.70;;
1975;SDS011;988;48.016;7.800;2023-06-14T04:27:21;17.63;;;16.42;;
1975;SDS011;988;48.016;7.800;2023-06-14T04:29:50;16.85;;;15.75;;
1975;SDS011;988;48.016;7.800;2023-06-14T04:32:21;17.70;;;15.93;;
1975;SDS011;988;48.016;7.800;2023-06-14T04:34:54;17.33;;;16.17;;
1975;SDS011;988;48.016;7.800;2023-06-14T04:37:24;19.35;;;17.60;;
1975;SDS011;988;48.016;7.800;2023-06-14T04:39:51;18.80;;;17.15;;
1975;SDS011;988;48.016;7.800;2023-06-14T04:42:16;18.77;;;17.47;;
1975;SDS011;988;48.016;7.800;2023-06-14T04:44:45;18.67;;;17.15;;
1975;SDS011;988;48.016;7.800;2023-06-14T04:47:12;20.60;;;19.00;;
1975;SDS011;988;48.016;7.800;2023-06-14T04:49:39;20.92;;;19.02;;
1975;SDS011;988;48.016;7.800;2023-06-14T04:52:05;19.33;;;17.85;;
1975;SDS011;988;48.016;7.800;2023-06-14T04:54:31;25.13;;;17.70;;
1975;SDS011;988;48.016;7.800;2023-06-14T04:56:58;24.27;;;19.45;;
1975;SDS011;988;48.016;7.800;2023-06-14T04:59:24;20.73;;;17.47;;
1975;SDS011;988;48.016;7.800;2023-06-14T05:01:50;19.53;;;17.97;;
1975;SDS011;988;48.016;7.800;2023-06-14T05:04:16;23.25;;;20.90;;
1975;SDS011;988;48.016;7.800;2023-06-14T05:06:43;23.30;;;19.73;;
1975;SDS011;988;48.016;7.800;2023-06-14T05:09:10;20.50;;;18.30;;
1975;SDS011;988;48.016;7.800;2023-06-14T05:11:36;19.48;;;18.05;;
1975;SDS011;988;48.016;7.800;2023-06-14T05:14:01;20.00;;;18.80;;
1975;SDS011;988;48.016;7.800;2023-06-14T05:16:27;21.60;;;20.20;;
1975;SDS011;988;48.016;7.800;2023-06-14T05:18:54;21.30;;;20.00;;
1975;SDS011;988;48.016;7.800;2023-06-14T05:21:20;20.43;;;19.30;;
1975;SDS011;988;48.016;7.800;2023-06-14T05:23:45;20.60;;;19.40;;
1975;SDS011;988;48.016;7.800;2023-06-14T05:26:11;20.80;;;19.30;;
1975;SDS011;988;48.016;7.800;2023-06-14T05:28:37;21.63;;;20.33;;
1975;SDS011;988;48.016;7.800;2023-06-14T05:31:02;21.50;;;20.10;;
1975;SDS011;988;48.016;7.800;2023-06-14T05:33:28;29.07;;;22.10;;
1975;SDS011;988;48.016;7.800;2023-06-14T05:35:54;21.77;;;20.37;;
1975;SDS011;988;48.016;7.800;2023-06-14T05:38:20;22.00;;;20.70;;
1975;SDS011;988;48.016;7.800;2023-06-14T05:40:46;21.50;;;20.20;;
1975;SDS011;988;48.016;7.800;2023-06-14T05:43:11;23.53;;;22.20;;
1975;SDS011;988;48.016;7.800;2023-06-14T05:45:37;23.53;;;21.83;;
1975;SDS011;988;48.016;7.800;2023-06-14T05:48:03;22.13;;;20.63;;
1975;SDS011;988;48.016;7.800;2023-06-14T05:50:28;22.77;;;21.47;;
1975;SDS011;988;48.016;7.800;2023-06-14T05:52:54;23.27;;;21.60;;
1975;SDS011;988;48.016;7.800;2023-06-14T05:55:20;21.43;;;20.13;;
1975;SDS011;988;48.016;7.800;2023-06-14T05:57:45;21.03;;;19.80;;
1975;SDS011;988;48.016;7.800;2023-06-14T06:00:13;22.53;;;21.03;;
1975;SDS011;988;48.016;7.800;2023-06-14T06:02:42;22.10;;;20.80;;
1975;SDS011;988;48.016;7.800;2023-06-14T06:05:10;22.13;;;20.70;;
1975;SDS011;988;48.016;7.800;2023-06-14T06:07:36;22.70;;;21.10;;
1975;SDS011;988;48.016;7.800;2023-06-14T06:10:02;22.20;;;20.60;;
1975;SDS011;988;48.016;7.800;2023-06-14T06:12:29;21.93;;;20.43;;
1975;SDS011;988;48.016;7.800;2023-06-14T06:14:55;21.77;;;20.57;;
1975;SDS011;988;48.016;7.800;2023-06-14T06:17:21;21.13;;;19.47;;
1975;SDS011;988;48.016;7.800;2023-06-14T06:19:46;20.53;;;19.23;;
1975;SDS011;988;48.016;7.800;2023-06-14T06:22:12;22.13;;;20.60;;
1975;SDS011;988;48.016;7.800;2023-06-14T06:24:38;22.43;;;20.77;;
1975;SDS011;988;48.016;7.800;2023-06-14T06:27:03;22.83;;;21.20;;
1975;SDS011;988;48.016;7.800;2023-06-14T06:29:29;22.53;;;21.13;;
1975;SDS011;988;48.016;7.800;2023-06-14T06:31:55;22.70;;;21.30;;
1975;SDS011;988;48.016;7.800;2023-06-14T06:34:21;22.43;;;20.97;;
1975;SDS011;988;48.016;7.800;2023-06-14T06:36:47;22.30;;;20.90;;
1975;SDS011;988;48.016;7.800;2023-06-14T06:39:12;20.97;;;19.43;;
1975;SDS011;988;48.016;7.800;2023-06-14T06:41:40;22.90;;;21.50;;
1975;SDS011;988;48.016;7.800;2023-06-14T06:44:06;22.17;;;20.93;;
1975;SDS011;988;48.016;7.800;2023-06-14T06:46:32;21.70;;;20.50;;
1975;SDS011;988;48.016;7.800;2023-06-14T06:48:59;21.80;;;20.23;;
1975;SDS011;988;48.016;7.800;2023-06-14T06:51:25;22.47;;;20.77;;
1975;SDS011;988;48.016;7.800;2023-06-14T06:53:54;22.20;;;20.70;;
1975;SDS011;988;48.016;7.800;2023-06-14T06:56:20;22.20;;;20.60;;
1975;SDS011;988;48.016;7.800;2023-06-14T06:58:48;22.17;;;20.70;;
1975;SDS011;988;48.016;7.800;2023-06-14T07:01:14;22.57;;;21.07;;
1975;SDS011;988;48.016;7.800;2023-06-14T07:03:40;22.00;;;20.20;;
1975;SDS011;988;48.016;7.800;2023-06-14T07:06:06;21.83;;;19.90;;
1975;SDS011;988;48.016;7.800;2023-06-14T07:08:32;20.03;;;18.83;;
1975;SDS011;988;48.016;7.800;2023-06-14T07:10:57;20.37;;;19.17;;
1975;SDS011;988;48.016;7.800;2023-06-14T07:13:23;20.67;;;19.50;;
1975;SDS011;988;48.016;7.800;2023-06-14T07:15:49;21.27;;;19.73;;
1975;SDS011;988;48.016;7.800;2023-06-14T07:18:14;21.63;;;20.43;;
1975;SDS011;988;48.016;7.800;2023-06-14T07:20:40;21.60;;;20.30;;
1975;SDS011;988;48.016;7.800;2023-06-14T07:23:07;21.10;;;19.60;;
1975;SDS011;988;48.016;7.800;2023-06-14T07:25:33;21.00;;;19.40;;
1975;SDS011;988;48.016;7.800;2023-06-14T07:27:58;22.20;;;20.40;;
1975;SDS011;988;48.016;7.800;2023-06-14T07:30:24;21.40;;;20.10;;
1975;SDS011;988;48.016;7.800;2023-06-14T07:32:52;21.37;;;20.07;;
1975;SDS011;988;48.016;7.800;2023-06-14T07:35:18;20.80;;;19.40;;
1975;SDS011;988;48.016;7.800;2023-06-14T07:37:43;22.43;;;20.50;;
1975;SDS011;988;48.016;7.800;2023-06-14T07:40:13;22.37;;;20.83;;
1975;SDS011;988;48.016;7.800;2023-06-14T07:42:38;21.87;;;19.93;;
1975;SDS011;988;48.016;7.800;2023-06-14T07:45:05;21.13;;;19.93;;
1975;SDS011;988;48.016;7.800;2023-06-14T07:47:31;19.90;;;18.63;;
1975;SDS011;988;48.016;7.800;2023-06-14T07:49:57;21.70;;;20.40;;
1975;SDS011;988;48.016;7.800;2023-06-14T07:52:22;20.90;;;19.70;;
1975;SDS011;988;48.016;7.800;2023-06-14T07:54:48;21.67;;;20.30;;
1975;SDS011;988;48.016;7.800;2023-06-14T07:57:14;21.57;;;20.17;;
1975;SDS011;988;48.016;7.800;2023-06-14T07:59:39;21.70;;;20.50;;
1975;SDS011;988;48.016;7.800;2023-06-14T08:02:05;22.40;;;21.00;;
1975;SDS011;988;48.016;7.800;2023-06-14T08:04:31;21.97;;;20.63;;
1975;SDS011;988;48.016;7.800;2023-06-14T08:06:58;21.67;;;20.27;;
1975;SDS011;988;48.016;7.800;2023-06-14T08:09:25;22.93;;;21.63;;
1975;SDS011;988;48.016;7.800;2023-06-14T08:11:52;23.63;;;22.20;;
1975;SDS011;988;48.016;7.800;2023-06-14T08:14:18;23.07;;;21.77;;
1975;SDS011;988;48.016;7.800;2023-06-14T08:16:43;23.30;;;22.00;;
1975;SDS011;988;48.016;7.800;2023-06-14T08:19:09;22.47;;;20.60;;
1975;SDS011;988;48.016;7.800;2023-06-14T08:21:35;22.27;;;20.87;;
1975;SDS011;988;48.016;7.800;2023-06-14T08:24:01;23.17;;;21.77;;
1975;SDS011;988;48.016;7.800;2023-06-14T08:26:27;24.37;;;22.67;;
1975;SDS011;988;48.016;7.800;2023-06-14T08:28:56;22.03;;;20.53;;
1975;SDS011;988;48.016;7.800;2023-06-14T08:31:22;22.53;;;21.17;;
1975;SDS011;988;48.016;7.800;2023-06-14T08:33:49;23.43;;;21.83;;
1975;SDS011;988;48.016;7.800;2023-06-14T08:36:14;22.90;;;21.70;;
1975;SDS011;988;48.016;7.800;2023-06-14T08:38:40;23.30;;;21.90;;
1975;SDS011;988;48.016;7.800;2023-06-14T08:41:05;23.93;;;22.30;;
1975;SDS011;988;48.016;7.800;2023-06-14T08:43:31;23.70;;;22.30;;
1975;SDS011;988;48.016;7.800;2023-06-14T08:45:58;24.90;;;23.50;;
1975;SDS011;988;48.016;7.800;2023-06-14T08:48:28;23.93;;;22.67;;
1975;SDS011;988;48.016;7.800;2023-06-14T08:50:55;24.13;;;22.63;;
1975;SDS011;988;48.016;7.800;2023-06-14T08:53:27;25.23;;;23.93;;
1975;SDS011;988;48.016;7.800;2023-06-14T08:55:56;24.57;;;23.27;;
1975;SDS011;988;48.016;7.800;2023-06-14T08:58:26;26.30;;;24.00;;
1975;SDS011;988;48.016;7.800;2023-06-14T09:00:54;25.70;;;23.67;;
1975;SDS011;988;48.016;7.800;2023-06-14T09:03:21;25.60;;;24.10;;
1975;SDS011;988;48.016;7.800;2023-06-14T09:05:48;25.67;;;23.43;;
1975;SDS011;988;48.016;7.800;2023-06-14T09:08:14;25.67;;;24.27;;
1975;SDS011;988;48.016;7.800;2023-06-14T09:10:41;24.40;;;22.90;;
1975;SDS011;988;48.016;7.800;2023-06-14T09:13:06;23.17;;;22.07;;
1975;SDS011;988;48.016;7.800;2023-06-14T09:15:32;24.07;;;22.87;;
1975;SDS011;988;48.016;7.800;2023-06-14T09:18:03;26.00;;;24.40;;
1975;SDS011;988;48.016;7.800;2023-06-14T09:20:29;24.50;;;22.90;;
1975;SDS011;988;48.016;7.800;2023-06-14T09:22:55;23.67;;;22.37;;
1975;SDS011;988;48.016;7.800;2023-06-14T09:25:21;24.10;;;22.87;;
1975;SDS011;988;48.016;7.800;2023-06-14T09:27:47;23.83;;;22.43;;
1975;SDS011;988;48.016;7.800;2023-06-14T09:30:13;24.60;;;22.93;;
1975;SDS011;988;48.016;7.800;2023-06-14T09:32:39;25.40;;;23.97;;
1975;SDS011;988;48.016;7.800;2023-06-14T09:35:08;24.83;;;23.37;;
1975;SDS011;988;48.016;7.800;2023-06-14T09:37:34;23.87;;;22.53;;
1975;SDS011;988;48.016;7.800;2023-06-14T09:40:02;25.30;;;23.90;;
1975;SDS011;988;48.016;7.800;2023-06-14T09:42:28;24.70;;;23.13;;
1975;SDS011;988;48.016;7.800;2023-06-14T09:44:55;24.67;;;23.47;;
1975;SDS011;988;48.016;7.800;2023-06-14T09:47:21;24.67;;;23.37;;
1975;SDS011;988;48.016;7.800;2023-06-14T09:49:48;22.97;;;21.77;;
1975;SDS011;988;48.016;7.800;2023-06-14T09:52:16;23.40;;;22.10;;
1975;SDS011;988;48.016;7.800;2023-06-14T09:54:44;24.60;;;22.93;;
1975;SDS011;988;48.016;7.800;2023-06-14T09:57:20;23.87;;;22.57;;
1975;SDS011;988;48.016;7.800;2023-06-14T09:59:47;23.30;;;22.03;;
1975;SDS011;988;48.016;7.800;2023-06-14T10:05:06;23.03;;;21.83;;
1975;SDS011;988;48.016;7.800;2023-06-14T10:07:41;26.07;;;24.20;;
1975;SDS011;988;48.016;7.800;2023-06-14T10:10:13;25.30;;;23.90;;
1975;SDS011;988;48.016;7.800;2023-06-14T10:12:40;25.73;;;24.23;;
1975;SDS011;988;48.016;7.800;2023-06-14T10:15:07;25.53;;;24.10;;
1975;SDS011;988;48.016;7.800;2023-06-14T10:23:12;24.50;;;23.03;;
1975;SDS011;988;48.016;7.800;2023-06-14T10:25:54;24.77;;;23.27;;
1975;SDS011;988;48.016;7.800;2023-06-14T10:28:22;24.33;;;22.70;;
1975;SDS011;988;48.016;7.800;2023-06-14T10:33:36;23.30;;;21.83;;
1975;SDS011;988;48.016;7.800;2023-06-14T10:41:29;25.63;;;23.97;;
1975;SDS011;988;48.016;7.800;2023-06-14T10:44:10;26.93;;;25.43;;
1975;SDS011;988;48.016;7.800;2023-06-14T10:46:36;24.47;;;23.17;;
1975;SDS011;988;48.016;7.800;2023-06-14T10:49:01;27.17;;;25.40;;
1975;SDS011;988;48.016;7.800;2023-06-14T10:51:29;25.77;;;24.27;;
1975;SDS011;988;48.016;7.800;2023-06-14T10:53:56;24.63;;;23.00;;
1975;SDS011;988;48.016;7.800;2023-06-14T10:56:30;24.43;;;22.73;;
1975;SDS011;988;48.016;7.800;2023-06-14T10:58:57;24.17;;;22.97;;
1975;SDS011;988;48.016;7.800;2023-06-14T11:01:28;25.07;;;23.77;;
1975;SDS011;988;48.016;7.800;2023-06-14T11:04:05;23.73;;;22.53;;
1975;SDS011;988;48.016;7.800;2023-06-14T11:06:39;24.77;;;23.43;;
1975;SDS011;988;48.016;7.800;2023-06-14T11:10:14;24.50;;;23.10;;
1975;SDS011;988;48.016;7.800;2023-06-14T11:12:25;24.57;;;23.20;;
1975;SDS011;988;48.016;7.800;2023-06-14T11:14:53;26.07;;;24.67;;
1975;SDS011;988;48.016;7.800;2023-06-14T11:17:18;26.90;;;25.37;;
1975;SDS011;988;48.016;7.800;2023-06-14T11:19:45;27.07;;;25.57;;
1975;SDS011;988;48.016;7.800;2023-06-14T11:22:10;26.70;;;25.27;;
1975;SDS011;988;48.016;7.800;2023-06-14T11:24:37;27.50;;;25.80;;
1975;SDS011;988;48.016;7.800;2023-06-14T11:27:02;27.20;;;25.48;;
1975;SDS011;988;48.016;7.800;2023-06-14T11:29:28;28.25;;;26.65;;
1975;SDS011;988;48.016;7.800;2023-06-14T11:31:54;27.30;;;25.77;;
1975;SDS011;988;48.016;7.800;2023-06-14T11:34:20;28.17;;;26.77;;
1975;SDS011;988;48.016;7.800;2023-06-14T11:36:45;26.60;;;24.83;;
1975;SDS011;988;48.016;7.800;2023-06-14T11:39:12;29.30;;;27.60;;
1975;SDS011;988;48.016;7.800;2023-06-14T11:41:39;29.00;;;27.23;;
1975;SDS011;988;48.016;7.800;2023-06-14T11:44:09;29.07;;;26.97;;
1975;SDS011;988;48.016;7.800;2023-06-14T11:46:35;30.37;;;28.57;;
1975;SDS011;988;48.016;7.800;2023-06-14T11:49:01;29.50;;;27.90;;
1975;SDS011;988;48.016;7.800;2023-06-14T11:51:32;29.97;;;28.17;;
1975;SDS011;988;48.016;7.800;2023-06-14T11:53:58;29.13;;;27.63;;
1975;SDS011;988;48.016;7.800;2023-06-14T11:56:24;29.60;;;27.47;;
1975;SDS011;988;48.016;7.800;2023-06-14T11:58:52;29.43;;;27.30;;
1975;SDS011;988;48.016;7.800;2023-06-14T12:01:21;30.83;;;28.50;;
1975;SDS011;988;48.016;7.800;2023-06-14T12:03:50;29.53;;;26.80;;
1975;SDS011;988;48.016;7.800;2023-06-14T12:06:25;29.20;;;27.70;;
1975;SDS011;988;48.016;7.800;2023-06-14T12:08:58;29.03;;;27.33;;
1975;SDS011;988;48.016;7.800;2023-06-14T12:11:24;27.63;;;26.17;;
1975;SDS011;988;48.016;7.800;2023-06-14T12:13:53;28.83;;;27.07;;
1975;SDS011;988;48.016;7.800;2023-06-14T12:16:19;29.93;;;28.43;;
1975;SDS011;988;48.016;7.800;2023-06-14T12:18:44;29.73;;;27.97;;
1975;SDS011;988;48.016;7.800;2023-06-14T12:21:10;30.23;;;28.37;;
1975;SDS011;988;48.016;7.800;2023-06-14T12:23:42;30.10;;;28.10;;
1975;SDS011;988;48.016;7.800;2023-06-14T12:26:08;28.60;;;26.83;;
1975;SDS011;988;48.016;7.800;2023-06-14T12:28:33;29.77;;;28.17;;
1975;SDS011;988;48.016;7.800;2023-06-14T12:30:59;30.07;;;28.37;;
1975;SDS011;988;48.016;7.800;2023-06-14T12:33:24;29.57;;;27.80;;
1975;SDS011;988;48.016;7.800;2023-06-14T12:35:50;30.57;;;28.47;;
1975;SDS011;988;48.016;7.800;2023-06-14T12:38:19;30.07;;;28.37;;
1975;SDS011;988;48.016;7.800;2023-06-14T12:40:46;27.63;;;26.23;;
1975;SDS011;988;48.016;7.800;2023-06-14T12:43:11;29.07;;;27.57;;
1975;SDS011;988;48.016;7.800;2023-06-14T12:45:37;30.73;;;29.13;;
1975;SDS011;988;48.016;7.800;2023-06-14T12:48:03;29.67;;;27.77;;
1975;SDS011;988;48.016;7.800;2023-06-14T12:50:29;30.47;;;28.87;;
1975;SDS011;988;48.016;7.800;2023-06-14T12:52:55;30.00;;;28.23;;
1975;SDS011;988;48.016;7.800;2023-06-14T12:55:20;29.27;;;26.73;;
1975;SDS011;988;48.016;7.800;2023-06-14T12:57:47;29.03;;;27.00;;
1975;SDS011;988;48.016;7.800;2023-06-14T13:00:14;31.10;;;28.97;;
1975;SDS011;988;48.016;7.800;2023-06-14T13:02:40;28.20;;;26.60;;
1975;SDS011;988;48.016;7.800;2023-06-14T13:05:06;30.00;;;28.40;;
1975;SDS011;988;48.016;7.800;2023-06-14T13:07:32;27.77;;;26.07;;
1975;SDS011;988;48.016;7.800;2023-06-14T13:09:57;30.10;;;28.30;;
1975;SDS011;988;48.016;7.800;2023-06-14T13:12:23;30.20;;;28.47;;
1975;SDS011;988;48.016;7.800;2023-06-14T13:14:49;29.83;;;27.83;;
1975;SDS011;988;48.016;7.800;2023-06-14T13:17:15;28.73;;;26.93;;
1975;SDS011;988;48.016;7.800;2023-06-14T13:19:40;29.63;;;27.67;;
1975;SDS011;988;48.016;7.800;2023-06-14T13:22:07;29.10;;;27.40;;
1975;SDS011;988;48.016;7.800;2023-06-14T13:24:33;27.50;;;26.00;;
1975;SDS011;988;48.016;7.800;2023-06-14T13:26:59;26.67;;;25.17;;
1975;SDS011;988;48.016;7.800;2023-06-14T13:29:24;26.13;;;24.33;;
1975;SDS011;988;48.016;7.800;2023-06-14T13:31:51;28.00;;;26.50;;
1975;SDS011;988;48.016;7.800;2023-06-14T13:34:17;26.33;;;24.80;;
1975;SDS011;988;48.016;7.800;2023-06-14T13:36:43;26.70;;;25.20;;
1975;SDS011;988;48.016;7.800;2023-06-14T13:39:08;28.07;;;25.80;;
1975;SDS011;988;48.016;7.800;2023-06-14T13:41:35;26.43;;;24.87;;
1975;SDS011;988;48.016;7.800;2023-06-14T13:44:01;25.53;;;24.13;;
1975;SDS011;988;48.016;7.800;2023-06-14T13:46:30;25.20;;;23.60;;
1975;SDS011;988;48.016;7.800;2023-06-14T13:48:56;24.90;;;23.53;;
1975;SDS011;988;48.016;7.800;2023-06-14T13:51:23;24.97;;;23.50;;
1975;SDS011;988;48.016;7.800;2023-06-14T13:53:49;25.07;;;23.70;;
1975;SDS011;988;48.016;7.800;2023-06-14T13:56:15;26.37;;;24.30;;
1975;SDS011;988;48.016;7.800;2023-06-14T13:58:41;24.73;;;23.10;;
1975;SDS011;988;48.016;7.800;2023-06-14T14:01:07;25.00;;;23.53;;
1975;SDS011;988;48.016;7.800;2023-06-14T14:03:33;24.83;;;23.47;;
1975;SDS011;988;48.016;7.800;2023-06-14T14:06:00;24.80;;;23.40;;
1975;SDS011;988;48.016;7.800;2023-06-14T14:08:26;26.10;;;24.70;;
1975;SDS011;988;48.016;7.800;2023-06-14T14:10:52;25.33;;;23.83;;
1975;SDS011;988;48.016;7.800;2023-06-14T14:13:18;24.83;;;23.43;;
1975;SDS011;988;48.016;7.800;2023-06-14T14:15:43;23.67;;;21.70;;
1975;SDS011;988;48.016;7.800;2023-06-14T14:18:09;23.10;;;21.90;;
1975;SDS011;988;48.016;7.800;2023-06-14T14:20:35;22.87;;;21.47;;
1975;SDS011;988;48.016;7.800;2023-06-14T14:23:00;23.30;;;21.70;;
1975;SDS011;988;48.016;7.800;2023-06-14T14:25:27;23.40;;;22.00;;
1975;SDS011;988;48.016;7.800;2023-06-14T14:27:52;22.90;;;21.70;;
1975;SDS011;988;48.016;7.800;2023-06-14T14:30:18;22.60;;;21.37;;
1975;SDS011;988;48.016;7.800;2023-06-14T14:32:48;23.23;;;21.90;;
1975;SDS011;988;48.016;7.800;2023-06-14T14:35:14;23.53;;;21.90;;
1975;SDS011;988;48.016;7.800;2023-06-14T14:37:41;24.30;;;22.60;;
1975;SDS011;988;48.016;7.800;2023-06-14T14:40:06;23.93;;;21.83;;
1975;SDS011;988;48.016;7.800;2023-06-14T14:42:34;23.20;;;21.90;;
1975;SDS011;988;48.016;7.800;2023-06-14T14:45:00;23.93;;;22.53;;
1975;SDS011;988;48.016;7.800;2023-06-14T14:47:26;23.77;;;22.23;;
1975;SDS011;988;48.016;7.800;2023-06-14T14:49:51;23.30;;;21.80;;
1975;SDS011;988;48.016;7.800;2023-06-14T14:52:17;23.03;;;21.60;;
1975;SDS011;988;48.016;7.800;2023-06-14T14:54:43;22.80;;;21.60;;
1975;SDS011;988;48.016;7.800;2023-06-14T14:57:08;23.97;;;22.57;;
1975;SDS011;988;48.016;7.800;2023-06-14T14:59:34;22.10;;;20.80;;
1975;SDS011;988;48.016;7.800;2023-06-14T15:01:59;22.90;;;21.30;;
1975;SDS011;988;48.016;7.800;2023-06-14T15:04:25;22.40;;;21.23;;
1975;SDS011;988;48.016;7.800;2023-06-14T15:06:50;22.53;;;21.33;;
1975;SDS011;988;48.016;7.800;2023-06-14T15:09:16;22.30;;;20.90;;
1975;SDS011;988;48.016;7.800;2023-06-14T15:11:41;23.03;;;21.37;;
1975;SDS011;988;48.016;7.800;2023-06-14T15:14:09;22.60;;;21.20;;
1975;SDS011;988;48.016;7.800;2023-06-14T15:16:35;22.73;;;21.33;;